createdAt,value
2018-04-27T00:00:42.452Z,8.60
2018-04-27T00:01:42.408Z,9.10
2018-04-27T00:02:42.360Z,8.70
2018-04-27T00:03:42.319Z,9.20
2018-04-27T00:04:42.271Z,8.40
2018-04-27T00:05:42.225Z,8.60
2018-04-27T00:06:42.180Z,8.80
2018-04-27T00:07:42.136Z,8.90
2018-04-27T00:08:42.088Z,9.10
2018-04-27T00:09:42.040Z,8.90
2018-04-27T00:10:42.003Z,8.80
2018-04-27T00:11:41.971Z,8.50
2018-04-27T00:12:41.911Z,8.70
2018-04-27T00:13:41.856Z,9.00
2018-04-27T00:14:41.814Z,9.10
2018-04-27T00:15:41.768Z,9.20
2018-04-27T00:16:41.737Z,9.00
2018-04-27T00:17:41.677Z,8.90
2018-04-27T00:18:41.630Z,8.60
2018-04-27T00:19:41.584Z,8.80
2018-04-27T00:20:41.537Z,9.20
2018-04-27T00:21:41.490Z,8.80
2018-04-27T00:22:41.445Z,8.90
2018-04-27T00:23:41.405Z,8.70
2018-04-27T00:24:41.360Z,8.80
2018-04-27T00:25:41.307Z,9.10
2018-04-27T00:26:41.263Z,9.90
2018-04-27T00:27:41.217Z,9.00
2018-04-27T00:28:41.173Z,9.90
2018-04-27T00:29:41.125Z,9.80
2018-04-27T00:30:41.082Z,9.40
2018-04-27T00:31:41.034Z,9.40
2018-04-27T00:32:40.988Z,9.50
2018-04-27T00:33:40.942Z,9.40
2018-04-27T00:34:40.897Z,8.90
2018-04-27T00:35:40.852Z,8.80
2018-04-27T00:36:40.818Z,9.00
2018-04-27T00:37:40.762Z,9.00
2018-04-27T00:38:40.719Z,8.90
2018-04-27T00:39:40.669Z,9.10
2018-04-27T00:40:40.620Z,9.40
2018-04-27T00:41:40.576Z,9.30
2018-04-27T00:42:40.532Z,9.20
2018-04-27T00:43:40.486Z,9.00
2018-04-27T00:44:40.439Z,9.20
2018-04-27T00:45:40.394Z,8.70
2018-04-27T00:46:40.350Z,8.40
2018-04-27T00:47:40.305Z,9.00
2018-04-27T00:48:40.258Z,9.40
2018-04-27T00:49:40.218Z,8.50
2018-04-27T00:50:40.172Z,9.00
2018-04-27T00:51:40.123Z,9.10
2018-04-27T00:52:40.107Z,8.80
2018-04-27T00:53:40.028Z,9.60
2018-04-27T00:54:39.985Z,9.50
2018-04-27T00:55:39.940Z,8.70
2018-04-27T00:56:39.894Z,9.00
2018-04-27T00:57:39.846Z,9.40
2018-04-27T00:58:39.803Z,9.10
2018-04-27T00:59:39.758Z,9.10
2018-04-27T01:00:39.706Z,9.40
2018-04-27T01:01:39.665Z,9.00
2018-04-27T01:02:39.617Z,9.10
2018-04-27T01:03:39.570Z,9.10
2018-04-27T01:04:39.526Z,9.20
2018-04-27T01:05:39.478Z,9.50
2018-04-27T01:06:39.435Z,8.70
2018-04-27T01:07:39.391Z,9.10
2018-04-27T01:08:39.343Z,9.10
2018-04-27T01:09:39.299Z,8.90
2018-04-27T01:10:39.253Z,9.40
2018-04-27T01:11:39.206Z,8.90
2018-04-27T01:12:39.159Z,8.70
2018-04-27T01:13:39.113Z,9.50
2018-04-27T01:14:39.069Z,9.10
2018-04-27T01:15:39.024Z,9.10
2018-04-27T01:16:38.976Z,9.00
2018-04-27T01:17:38.929Z,8.80
2018-04-27T01:18:38.885Z,9.00
2018-04-27T01:19:38.840Z,8.70
2018-04-27T01:20:38.794Z,8.40
2018-04-27T01:21:38.748Z,8.90
2018-04-27T01:22:38.704Z,8.30
2018-04-27T01:23:38.660Z,9.30
2018-04-27T01:24:38.610Z,8.80
2018-04-27T01:25:38.564Z,8.40
2018-04-27T01:26:38.522Z,8.50
2018-04-27T01:27:38.475Z,8.50
2018-04-27T01:28:38.429Z,8.10
2018-04-27T01:29:38.380Z,8.20
2018-04-27T01:30:38.335Z,8.40
2018-04-27T01:31:38.288Z,8.70
2018-04-27T01:32:38.241Z,8.30
2018-04-27T01:33:38.196Z,8.00
2018-04-27T01:34:38.151Z,8.10
2018-04-27T01:35:38.108Z,8.20
2018-04-27T01:36:38.059Z,8.40
2018-04-27T01:37:38.016Z,8.00
2018-04-27T01:38:37.968Z,8.20
2018-04-27T01:39:37.925Z,7.90
2018-04-27T01:40:37.875Z,8.40
2018-04-27T01:41:37.835Z,8.50
2018-04-27T01:42:37.784Z,7.80
2018-04-27T01:43:37.739Z,7.80
2018-04-27T01:44:37.693Z,7.90
2018-04-27T01:45:37.646Z,7.70
2018-04-27T01:46:37.604Z,7.40
2018-04-27T01:47:37.554Z,7.60
2018-04-27T01:48:37.511Z,7.70
2018-04-27T01:49:37.466Z,7.90
2018-04-27T01:50:37.420Z,8.00
2018-04-27T01:51:37.372Z,7.80
2018-04-27T01:52:37.331Z,7.30
2018-04-27T01:53:37.281Z,7.30
2018-04-27T01:54:37.236Z,7.40
2018-04-27T01:55:37.191Z,7.20
2018-04-27T01:56:37.145Z,7.60
2018-04-27T01:57:37.098Z,7.80
2018-04-27T01:58:37.054Z,7.10
2018-04-27T01:59:37.008Z,7.40
2018-04-27T02:00:36.961Z,7.20
2018-04-27T02:01:36.915Z,7.40
2018-04-27T02:02:36.870Z,7.00
2018-04-27T02:03:36.822Z,7.30
2018-04-27T02:04:36.776Z,7.20
2018-04-27T02:05:36.736Z,7.40
2018-04-27T02:06:36.687Z,7.40
2018-04-27T02:07:36.641Z,6.90
2018-04-27T02:08:36.594Z,7.00
2018-04-27T02:09:36.547Z,6.90
2018-04-27T02:10:36.502Z,6.40
2018-04-27T02:11:36.455Z,6.80
2018-04-27T02:12:36.409Z,6.50
2018-04-27T02:13:36.364Z,6.40
2018-04-27T02:14:36.319Z,6.20
2018-04-27T02:15:36.272Z,7.00
2018-04-27T02:16:36.228Z,6.50
2018-04-27T02:17:36.180Z,6.80
2018-04-27T02:18:36.135Z,6.40
2018-04-27T02:19:36.089Z,6.60
2018-04-27T02:20:36.044Z,6.10
2018-04-27T02:21:35.996Z,6.40
2018-04-27T02:22:35.953Z,6.30
2018-04-27T02:23:35.904Z,6.20
2018-04-27T02:24:35.860Z,6.40
2018-04-27T02:25:35.811Z,6.80
2018-04-27T02:26:35.768Z,6.60
2018-04-27T02:27:35.721Z,6.40
2018-04-27T02:28:35.679Z,6.20
2018-04-27T02:29:35.630Z,6.60
2018-04-27T02:30:35.586Z,6.50
2018-04-27T02:31:35.550Z,6.40
2018-04-27T02:32:35.492Z,5.90
2018-04-27T02:33:35.445Z,6.00
2018-04-27T02:34:35.400Z,6.40
2018-04-27T02:35:35.353Z,6.40
2018-04-27T02:36:35.306Z,6.30
2018-04-27T02:37:35.261Z,6.60
2018-04-27T02:38:35.214Z,6.20
2018-04-27T02:39:35.176Z,6.40
2018-04-27T02:40:35.122Z,6.20
2018-04-27T02:41:35.080Z,5.70
2018-04-27T02:42:35.043Z,6.10
2018-04-27T02:43:34.987Z,6.20
2018-04-27T02:44:34.939Z,6.30
2018-04-27T02:45:34.892Z,6.20
2018-04-27T02:46:34.847Z,5.70
2018-04-27T02:47:34.800Z,5.80
2018-04-27T02:48:34.757Z,6.60
2018-04-27T02:49:34.709Z,5.70
2018-04-27T02:50:34.664Z,6.40
2018-04-27T02:51:34.633Z,5.70
2018-04-27T02:52:34.575Z,5.80
2018-04-27T02:53:34.528Z,5.50
2018-04-27T02:54:34.482Z,5.90
2018-04-27T02:55:34.433Z,6.20
2018-04-27T02:56:34.387Z,5.80
2018-04-27T02:57:34.340Z,5.30
2018-04-27T02:58:34.296Z,6.00
2018-04-27T02:59:34.249Z,5.60
2018-04-27T03:00:34.208Z,5.70
2018-04-27T03:01:34.157Z,5.70
2018-04-27T03:02:34.111Z,5.80
2018-04-27T03:03:34.067Z,5.40
2018-04-27T03:04:34.021Z,5.50
2018-04-27T03:05:33.978Z,6.10
2018-04-27T03:06:33.929Z,5.90
2018-04-27T03:07:33.885Z,5.70
2018-04-27T03:08:33.839Z,5.80
2018-04-27T03:09:33.790Z,5.90
2018-04-27T03:10:33.746Z,5.70
2018-04-27T03:11:33.699Z,5.70
2018-04-27T03:12:33.652Z,6.20
2018-04-27T03:13:33.608Z,5.80
2018-04-27T03:14:33.560Z,5.50
2018-04-27T03:15:33.515Z,5.90
2018-04-27T03:16:33.467Z,5.60
2018-04-27T03:17:33.420Z,5.40
2018-04-27T03:18:33.378Z,5.20
2018-04-27T03:19:33.330Z,5.40
2018-04-27T03:20:33.283Z,5.80
2018-04-27T03:21:33.238Z,5.50
2018-04-27T03:22:33.190Z,5.10
2018-04-27T03:23:33.146Z,5.50
2018-04-27T03:24:33.099Z,5.10
2018-04-27T03:25:33.051Z,5.30
2018-04-27T03:26:33.008Z,5.70
2018-04-27T03:27:32.963Z,6.10
2018-04-27T03:28:32.915Z,5.80
2018-04-27T03:29:32.867Z,5.80
2018-04-27T03:30:32.830Z,5.60
2018-04-27T03:31:32.780Z,5.10
2018-04-27T03:32:32.733Z,6.10
2018-04-27T03:33:32.685Z,5.20
2018-04-27T03:34:32.638Z,5.50
2018-04-27T03:35:32.597Z,5.30
2018-04-27T03:36:32.546Z,5.40
2018-04-27T03:37:32.501Z,5.70
2018-04-27T03:38:32.456Z,5.50
2018-04-27T03:39:32.409Z,5.40
2018-04-27T03:40:32.360Z,5.70
2018-04-27T03:41:32.314Z,5.20
2018-04-27T03:42:32.269Z,5.10
2018-04-27T03:43:32.225Z,5.60
2018-04-27T03:44:32.178Z,5.60
2018-04-27T03:45:32.133Z,5.40
2018-04-27T03:46:32.085Z,5.20
2018-04-27T03:47:32.044Z,5.70
2018-04-27T03:48:31.991Z,5.90
2018-04-27T03:49:31.946Z,6.00
2018-04-27T03:50:31.898Z,5.40
2018-04-27T03:51:31.857Z,5.70
2018-04-27T03:52:31.806Z,5.50
2018-04-27T03:53:31.760Z,5.50
2018-04-27T03:54:31.714Z,5.70
2018-04-27T03:55:31.674Z,5.80
2018-04-27T03:56:31.621Z,5.70
2018-04-27T03:57:31.577Z,5.70
2018-04-27T03:58:31.533Z,5.90
2018-04-27T03:59:31.486Z,6.20
2018-04-27T04:00:31.438Z,5.90
2018-04-27T04:01:31.393Z,5.80
2018-04-27T04:02:31.359Z,5.80
2018-04-27T04:03:31.298Z,6.20
2018-04-27T04:04:31.254Z,6.10
2018-04-27T04:05:31.213Z,6.00
2018-04-27T04:06:31.161Z,5.90
2018-04-27T04:07:31.113Z,6.60
2018-04-27T04:08:31.068Z,6.50
2018-04-27T04:09:31.025Z,6.60
2018-04-27T04:10:30.975Z,6.70
2018-04-27T04:11:30.934Z,7.00
2018-04-27T04:12:30.884Z,7.20
2018-04-27T04:13:30.835Z,6.70
2018-04-27T04:14:30.789Z,6.20
2018-04-27T04:15:30.742Z,6.30
2018-04-27T04:16:30.700Z,6.00
2018-04-27T04:17:30.653Z,5.90
2018-04-27T04:18:30.608Z,6.40
2018-04-27T04:19:30.562Z,6.30
2018-04-27T04:20:30.534Z,6.00
2018-04-27T04:21:30.466Z,6.00
2018-04-27T04:22:30.430Z,6.40
2018-04-27T04:23:30.371Z,6.90
2018-04-27T04:24:30.328Z,6.60
2018-04-27T04:25:30.282Z,6.20
2018-04-27T04:26:30.239Z,6.00
2018-04-27T04:27:30.187Z,6.00
2018-04-27T04:28:30.140Z,6.00
2018-04-27T04:29:30.097Z,5.50
2018-04-27T04:30:30.048Z,6.00
2018-04-27T04:31:30.007Z,5.90
2018-04-27T04:32:29.955Z,6.10
2018-04-27T04:33:29.907Z,5.40
2018-04-27T04:34:29.862Z,5.80
2018-04-27T04:35:29.826Z,5.90
2018-04-27T04:36:29.771Z,6.00
2018-04-27T04:37:29.723Z,5.70
2018-04-27T04:38:29.681Z,5.90
2018-04-27T04:39:29.631Z,5.90
2018-04-27T04:40:29.585Z,6.30
2018-04-27T04:41:29.537Z,6.00
2018-04-27T04:42:29.497Z,5.80
2018-04-27T04:43:29.446Z,5.60
2018-04-27T04:44:29.403Z,6.10
2018-04-27T04:45:29.354Z,6.50
2018-04-27T04:46:29.310Z,5.60
2018-04-27T04:47:29.260Z,5.60
2018-04-27T04:48:29.213Z,6.60
2018-04-27T04:49:29.170Z,5.70
2018-04-27T04:50:29.118Z,5.70
2018-04-27T04:51:29.076Z,5.60
2018-04-27T04:52:29.077Z,5.90
2018-04-27T04:53:28.981Z,5.60
2018-04-27T04:54:28.934Z,6.30
2018-04-27T04:55:28.888Z,5.70
2018-04-27T04:56:28.843Z,6.00
2018-04-27T04:57:28.797Z,5.70
2018-04-27T04:58:28.750Z,5.00
2018-04-27T04:59:28.717Z,5.80
2018-04-27T05:00:28.658Z,5.40
2018-04-27T05:01:28.615Z,5.90
2018-04-27T05:02:28.569Z,5.10
2018-04-27T05:03:28.520Z,5.70
2018-04-27T05:04:28.474Z,6.00
2018-04-27T05:05:28.428Z,5.80
2018-04-27T05:06:28.379Z,6.50
2018-04-27T05:07:28.335Z,5.30
2018-04-27T05:08:28.287Z,5.60
2018-04-27T05:09:28.243Z,5.20
2018-04-27T05:10:28.200Z,5.60
2018-04-27T05:11:28.149Z,5.40
2018-04-27T05:12:28.103Z,5.50
2018-04-27T05:13:28.058Z,5.20
2018-04-27T05:14:28.013Z,5.20
2018-04-27T05:15:27.979Z,5.30
2018-04-27T05:16:27.920Z,5.50
2018-04-27T05:17:27.874Z,5.20
2018-04-27T05:18:27.827Z,4.80
2018-04-27T05:19:27.785Z,6.10
2018-04-27T05:20:27.741Z,4.70
2018-04-27T05:21:27.690Z,5.00
2018-04-27T05:22:27.649Z,5.00
2018-04-27T05:23:27.600Z,4.60
2018-04-27T05:24:27.553Z,5.10
2018-04-27T05:25:27.527Z,4.90
2018-04-27T05:26:27.462Z,4.60
2018-04-27T05:27:27.415Z,4.90
2018-04-27T05:28:27.372Z,5.40
2018-04-27T05:29:27.323Z,4.80
2018-04-27T05:30:27.277Z,4.50
2018-04-27T05:31:27.235Z,4.70
2018-04-27T05:32:27.186Z,4.50
2018-04-27T05:33:27.142Z,5.00
2018-04-27T05:34:27.096Z,5.10
2018-04-27T05:35:27.050Z,4.40
2018-04-27T05:36:27.004Z,5.00
2018-04-27T05:37:26.958Z,4.80
2018-04-27T05:38:26.914Z,5.00
2018-04-27T05:39:26.867Z,4.50
2018-04-27T05:40:26.821Z,4.50
2018-04-27T05:41:26.779Z,4.40
2018-04-27T05:42:26.730Z,4.40
2018-04-27T05:43:26.733Z,4.60
2018-04-27T05:44:26.641Z,4.90
2018-04-27T05:45:26.599Z,4.90
2018-04-27T05:46:26.549Z,4.60
2018-04-27T05:47:26.504Z,4.70
2018-04-27T05:48:26.464Z,4.20
2018-04-27T05:49:26.414Z,4.40
2018-04-27T05:50:26.369Z,4.50
2018-04-27T05:51:26.325Z,4.50
2018-04-27T05:52:26.280Z,5.20
2018-04-27T05:53:26.236Z,4.50
2018-04-27T05:54:26.196Z,4.20
2018-04-27T05:56:26.100Z,5.10
2018-04-27T05:57:26.064Z,4.70
2018-04-27T05:58:26.015Z,4.90
2018-04-27T05:59:25.971Z,4.40
2018-04-27T06:00:25.926Z,3.90
2018-04-27T06:01:25.876Z,4.30
2018-04-27T06:02:25.831Z,4.40
2018-04-27T06:03:25.789Z,4.00
2018-04-27T06:04:25.740Z,4.30
2018-04-27T06:05:25.699Z,4.50
2018-04-27T06:06:25.648Z,4.30
2018-04-27T06:07:25.609Z,4.30
2018-04-27T06:08:25.559Z,3.90
2018-04-27T06:09:25.547Z,4.10
2018-04-27T06:10:25.518Z,4.00
2018-04-27T06:11:25.427Z,3.90
2018-04-27T06:12:25.380Z,3.90
2018-04-27T06:13:25.333Z,4.30
2018-04-27T06:14:25.290Z,4.00
2018-04-27T06:15:25.245Z,4.00
2018-04-27T06:16:25.201Z,4.10
2018-04-27T06:17:25.154Z,3.80
2018-04-27T06:18:25.113Z,4.30
2018-04-27T06:19:25.066Z,4.10
2018-04-27T06:20:25.020Z,3.70
2018-04-27T06:21:24.977Z,4.40
2018-04-27T06:22:24.931Z,3.80
2018-04-27T06:23:24.886Z,4.10
2018-04-27T06:24:24.841Z,3.80
2018-04-27T06:25:24.800Z,3.70
2018-04-27T06:26:24.754Z,3.80
2018-04-27T06:27:24.711Z,3.70
2018-04-27T06:28:24.664Z,3.80
2018-04-27T06:29:24.621Z,4.10
2018-04-27T06:30:24.577Z,3.70
2018-04-27T06:31:24.533Z,3.80
2018-04-27T06:32:24.486Z,3.70
2018-04-27T06:33:24.440Z,3.70
2018-04-27T06:34:24.397Z,4.30
2018-04-27T06:35:24.352Z,4.20
2018-04-27T06:36:24.307Z,3.70
2018-04-27T06:37:24.265Z,3.70
2018-04-27T06:38:24.222Z,4.10
2018-04-27T06:39:24.225Z,3.50
2018-04-27T06:40:24.129Z,4.20
2018-04-27T06:41:24.088Z,3.40
2018-04-27T06:42:24.048Z,3.80
2018-04-27T06:43:24.001Z,3.50
2018-04-27T06:44:23.952Z,4.10
2018-04-27T06:45:23.910Z,3.60
2018-04-27T06:46:23.868Z,3.90
2018-04-27T06:47:23.825Z,3.60
2018-04-27T06:48:23.775Z,3.60
2018-04-27T06:49:23.732Z,3.90
2018-04-27T06:50:23.695Z,3.40
2018-04-27T06:51:23.643Z,3.90
2018-04-27T06:52:23.603Z,3.80
2018-04-27T06:53:23.557Z,3.50
2018-04-27T06:54:23.512Z,3.50
2018-04-27T06:55:23.468Z,3.60
2018-04-27T06:56:23.426Z,3.90
2018-04-27T06:57:23.379Z,4.00
2018-04-27T06:58:23.335Z,3.40
2018-04-27T06:59:23.335Z,3.70
2018-04-27T07:00:23.258Z,3.40
2018-04-27T07:01:23.213Z,3.50
2018-04-27T07:02:23.172Z,3.50
2018-04-27T07:03:23.115Z,3.40
2018-04-27T07:04:23.073Z,3.30
2018-04-27T07:05:23.038Z,3.60
2018-04-27T07:06:22.988Z,3.00
2018-04-27T07:07:22.942Z,3.00
2018-04-27T07:08:22.898Z,3.40
2018-04-27T07:09:22.854Z,2.90
2018-04-27T07:10:22.810Z,2.80
2018-04-27T07:11:22.766Z,3.40
2018-04-27T07:12:22.723Z,2.90
2018-04-27T07:13:22.680Z,3.20
2018-04-27T07:14:22.639Z,2.90
2018-04-27T07:15:22.593Z,3.20
2018-04-27T07:16:22.549Z,3.00
2018-04-27T07:17:22.509Z,3.40
2018-04-27T07:18:22.462Z,3.10
2018-04-27T07:19:22.418Z,3.10
2018-04-27T07:20:22.373Z,2.90
2018-04-27T07:21:22.333Z,3.20
2018-04-27T07:22:22.291Z,2.90
2018-04-27T07:23:22.247Z,3.20
2018-04-27T07:24:22.248Z,2.90
2018-04-27T07:25:22.197Z,3.20
2018-04-27T07:26:22.118Z,3.00
2018-04-27T07:27:22.073Z,3.10
2018-04-27T07:28:22.031Z,3.00
2018-04-27T07:29:21.987Z,3.20
2018-04-27T07:30:21.942Z,3.50
2018-04-27T07:31:21.901Z,2.90
2018-04-27T07:32:21.857Z,2.90
2018-04-27T07:33:21.820Z,3.10
2018-04-27T07:35:21.732Z,2.80
2018-04-27T07:36:21.686Z,2.80
2018-04-27T07:37:21.644Z,2.90
2018-04-27T07:38:21.604Z,2.90
2018-04-27T07:39:21.559Z,3.00
2018-04-27T07:40:21.517Z,2.80
2018-04-27T07:41:21.477Z,2.50
2018-04-27T07:42:21.431Z,2.60
2018-04-27T07:43:21.387Z,2.60
2018-04-27T07:44:21.349Z,2.80
2018-04-27T07:45:21.388Z,2.90
2018-04-27T07:46:21.353Z,2.20
2018-04-27T07:47:21.313Z,3.40
2018-04-27T07:48:21.180Z,2.60
2018-04-27T07:49:21.141Z,2.90
2018-04-27T07:50:21.099Z,2.80
2018-04-27T07:51:21.053Z,2.20
2018-04-27T07:52:21.011Z,2.80
2018-04-27T07:53:20.970Z,2.90
2018-04-27T07:54:20.928Z,2.70
2018-04-27T07:55:20.897Z,2.60
2018-04-27T07:56:20.848Z,2.10
2018-04-27T07:57:20.807Z,2.60
2018-04-27T07:58:20.765Z,2.50
2018-04-27T07:59:20.723Z,2.40
2018-04-27T08:00:20.681Z,2.50
2018-04-27T08:01:20.642Z,2.40
2018-04-27T08:02:20.670Z,2.30
2018-04-27T08:03:20.562Z,2.40
2018-04-27T08:04:20.521Z,2.60
2018-04-27T08:05:20.476Z,2.70
2018-04-27T08:06:20.439Z,2.30
2018-04-27T08:08:20.358Z,2.90
2018-04-27T08:09:20.316Z,2.90
2018-04-27T08:10:20.275Z,2.70
2018-04-27T08:12:20.191Z,3.00
2018-04-27T08:13:20.151Z,2.90
2018-04-27T08:14:20.108Z,2.70
2018-04-27T08:16:20.031Z,3.10
2018-04-27T08:17:19.986Z,3.00
2018-04-27T08:18:19.945Z,2.90
2018-04-27T08:19:19.905Z,2.90
2018-04-27T08:20:19.864Z,3.30
2018-04-27T08:21:19.825Z,3.00
2018-04-27T08:22:19.785Z,2.90
2018-04-27T08:23:19.746Z,3.10
2018-04-27T08:24:19.703Z,3.00
2018-04-27T08:25:19.664Z,3.10
2018-04-27T08:26:19.625Z,2.80
2018-04-27T08:27:19.583Z,2.50
2018-04-27T08:28:19.548Z,2.80
2018-04-27T08:29:19.505Z,2.80
2018-04-27T08:30:19.531Z,2.60
2018-04-27T08:31:19.424Z,3.00
2018-04-27T08:32:19.390Z,2.70
2018-04-27T08:33:19.347Z,3.30
2018-04-27T08:34:19.364Z,3.00
2018-04-27T08:35:19.267Z,2.50
2018-04-27T08:36:19.224Z,2.60
2018-04-27T08:37:19.187Z,2.70
2018-04-27T08:38:19.146Z,2.50
2018-04-27T08:39:19.106Z,2.50
2018-04-27T08:40:19.065Z,2.40
2018-04-27T08:41:19.028Z,3.30
2018-04-27T08:42:18.989Z,3.00
2018-04-27T08:43:18.961Z,2.60
2018-04-27T08:44:18.907Z,2.70
2018-04-27T08:45:18.875Z,2.40
2018-04-27T08:46:18.831Z,2.30
2018-04-27T08:47:18.792Z,2.30
2018-04-27T08:48:18.754Z,2.50
2018-04-27T08:49:18.715Z,2.20
2018-04-27T08:50:18.681Z,2.10
2018-04-27T08:51:18.637Z,2.40
2018-04-27T08:52:18.599Z,2.00
2018-04-27T08:53:18.557Z,1.80
2018-04-27T08:54:18.531Z,2.40
2018-04-27T08:55:18.479Z,1.90
2018-04-27T08:56:18.438Z,2.50
2018-04-27T08:57:18.404Z,2.10
2018-04-27T08:58:18.369Z,2.10
2018-04-27T08:59:18.323Z,2.00
2018-04-27T09:00:18.284Z,2.40
2018-04-27T09:01:18.245Z,2.10
2018-04-27T09:02:18.209Z,2.20
2018-04-27T09:03:18.168Z,2.30
2018-04-27T09:04:18.129Z,2.10
2018-04-27T09:05:18.091Z,2.10
2018-04-27T09:06:18.098Z,1.90
2018-04-27T09:07:18.015Z,2.50
2018-04-27T09:08:17.975Z,2.20
2018-04-27T09:09:17.936Z,2.20
2018-04-27T09:10:17.899Z,2.10
2018-04-27T09:11:17.864Z,2.40
2018-04-27T09:12:17.819Z,2.20
2018-04-27T09:13:17.782Z,2.30
2018-04-27T09:14:17.745Z,2.00
2018-04-27T09:15:17.707Z,2.40
2018-04-27T09:16:17.673Z,2.10
2018-04-27T09:17:17.626Z,1.90
2018-04-27T09:18:17.588Z,2.10
2018-04-27T09:19:17.550Z,2.30
2018-04-27T09:20:17.517Z,2.20
2018-04-27T09:21:17.472Z,2.00
2018-04-27T09:22:17.433Z,2.00
2018-04-27T09:23:17.396Z,2.30
2018-04-27T09:24:17.363Z,1.80
2018-04-27T09:25:17.321Z,1.90
2018-04-27T09:26:17.278Z,2.00
2018-04-27T09:27:17.242Z,2.00
2018-04-27T09:28:17.202Z,1.90
2018-04-27T09:29:17.162Z,2.20
2018-04-27T09:30:17.123Z,1.80
2018-04-27T09:31:17.088Z,2.10
2018-04-27T09:32:17.070Z,2.30
2018-04-27T09:33:17.007Z,2.10
2018-04-27T09:34:16.972Z,1.80
2018-04-27T09:35:16.932Z,2.20
2018-04-27T09:36:16.893Z,2.70
2018-04-27T09:37:16.852Z,2.20
2018-04-27T09:38:16.816Z,2.10
2018-04-27T09:39:16.781Z,1.80
2018-04-27T09:40:16.739Z,1.90
2018-04-27T09:41:16.701Z,2.00
2018-04-27T09:42:16.674Z,2.40
2018-04-27T09:43:16.625Z,2.00
2018-04-27T09:44:16.583Z,2.00
2018-04-27T09:45:16.545Z,2.20
2018-04-27T09:46:16.506Z,2.20
2018-04-27T09:47:16.470Z,2.00
2018-04-27T09:48:16.430Z,2.00
2018-04-27T09:49:16.391Z,2.20
2018-04-27T09:50:16.358Z,2.10
2018-04-27T09:51:16.334Z,2.20
2018-04-27T09:52:16.299Z,2.00
2018-04-27T09:53:16.264Z,2.10
2018-04-27T09:54:16.279Z,2.00
2018-04-27T09:55:16.176Z,2.10
2018-04-27T09:56:16.153Z,2.20
2018-04-27T09:57:16.083Z,2.10
2018-04-27T09:58:16.048Z,1.70
2018-04-27T09:59:16.009Z,1.70
2018-04-27T10:00:15.967Z,2.10
2018-04-27T10:01:15.928Z,2.10
2018-04-27T10:02:15.887Z,1.80
2018-04-27T10:03:15.850Z,1.80
2018-04-27T10:04:15.811Z,1.90
2018-04-27T10:05:15.770Z,2.00
2018-04-27T10:06:15.737Z,2.00
2018-04-27T10:07:15.695Z,2.00
2018-04-27T10:08:15.657Z,2.20
2018-04-27T10:09:15.616Z,2.20
2018-04-27T10:10:15.579Z,1.90
2018-04-27T10:11:15.540Z,2.00
2018-04-27T10:12:15.502Z,1.90
2018-04-27T10:13:15.467Z,2.40
2018-04-27T10:14:15.427Z,2.30
2018-04-27T10:15:15.385Z,2.10
2018-04-27T10:16:15.354Z,2.20
2018-04-27T10:17:15.316Z,2.30
2018-04-27T10:18:15.272Z,2.40
2018-04-27T10:19:15.243Z,2.20
2018-04-27T10:20:15.197Z,2.20
2018-04-27T10:21:15.160Z,2.50
2018-04-27T10:22:15.122Z,2.40
2018-04-27T10:23:15.080Z,2.40
2018-04-27T10:24:15.040Z,2.50
2018-04-27T10:25:15.000Z,2.20
2018-04-27T10:26:14.963Z,2.20
2018-04-27T10:27:14.923Z,2.60
2018-04-27T10:28:14.886Z,2.60
2018-04-27T10:29:14.944Z,2.20
2018-04-27T10:30:14.811Z,2.80
2018-04-27T10:31:14.773Z,2.20
2018-04-27T10:32:14.735Z,2.50
2018-04-27T10:33:14.696Z,2.30
2018-04-27T10:34:14.655Z,2.80
2018-04-27T10:35:14.616Z,2.10
2018-04-27T10:36:14.576Z,2.30
2018-04-27T10:37:14.539Z,2.00
2018-04-27T10:38:14.501Z,2.30
2018-04-27T10:39:14.462Z,2.40
2018-04-27T10:40:14.423Z,1.90
2018-04-27T10:41:14.385Z,2.10
2018-04-27T10:42:14.347Z,2.20
2018-04-27T10:43:14.310Z,2.00
2018-04-27T10:44:14.271Z,2.00
2018-04-27T10:45:14.232Z,2.00
2018-04-27T10:46:14.197Z,2.20
2018-04-27T10:47:14.157Z,2.30
2018-04-27T10:48:14.117Z,2.20
2018-04-27T10:49:14.077Z,2.00
2018-04-27T10:50:14.087Z,2.10
2018-04-27T10:51:14.001Z,2.30
2018-04-27T10:52:13.961Z,2.00
2018-04-27T10:53:13.934Z,2.40
2018-04-27T10:54:13.890Z,2.10
2018-04-27T10:55:13.850Z,1.90
2018-04-27T10:56:13.811Z,2.10
2018-04-27T10:57:13.771Z,2.00
2018-04-27T10:58:13.734Z,2.10
2018-04-27T10:59:13.697Z,2.00
2018-04-27T11:00:13.661Z,2.10
2018-04-27T11:01:13.621Z,2.00
2018-04-27T11:02:13.583Z,2.00
2018-04-27T11:03:13.544Z,2.30
2018-04-27T11:04:13.508Z,2.10
2018-04-27T11:05:13.470Z,2.00
2018-04-27T11:06:13.436Z,2.10
2018-04-27T11:07:13.400Z,1.90
2018-04-27T11:08:13.357Z,2.10
2018-04-27T11:09:13.324Z,1.90
2018-04-27T11:10:13.282Z,2.00
2018-04-27T11:11:13.248Z,2.20
2018-04-27T11:12:13.204Z,1.80
2018-04-27T11:13:13.168Z,2.00
2018-04-27T11:14:13.133Z,1.90
2018-04-27T11:15:13.098Z,1.80
2018-04-27T11:16:13.060Z,2.10
2018-04-27T11:17:13.020Z,1.90
2018-04-27T11:18:12.981Z,1.70
2018-04-27T11:19:12.947Z,1.60
2018-04-27T11:20:12.915Z,2.00
2018-04-27T11:21:12.870Z,1.80
2018-04-27T11:22:12.835Z,1.90
2018-04-27T11:23:12.797Z,2.00
2018-04-27T11:24:12.761Z,2.40
2018-04-27T11:25:12.728Z,1.70
2018-04-27T11:26:12.690Z,1.80
2018-04-27T11:27:12.651Z,2.20
2018-04-27T11:28:12.617Z,2.00
2018-04-27T11:29:12.579Z,2.10
2018-04-27T11:30:12.542Z,2.40
2018-04-27T11:31:12.506Z,2.20
2018-04-27T11:32:12.471Z,2.20
2018-04-27T11:33:12.438Z,1.80
2018-04-27T11:34:12.395Z,2.10
2018-04-27T11:35:12.382Z,2.20
2018-04-27T11:36:12.330Z,1.70
2018-04-27T11:37:12.292Z,1.80
2018-04-27T11:38:12.259Z,1.90
2018-04-27T11:39:12.218Z,2.00
2018-04-27T11:40:12.183Z,2.10
2018-04-27T11:41:12.165Z,1.80
2018-04-27T11:42:12.113Z,1.80
2018-04-27T11:43:12.076Z,1.80
2018-04-27T11:44:12.039Z,1.80
2018-04-27T11:45:12.009Z,2.00
2018-04-27T11:46:11.973Z,2.10
2018-04-27T11:47:11.933Z,1.70
2018-04-27T11:48:11.899Z,1.80
2018-04-27T11:49:11.868Z,2.00
2018-04-27T11:50:11.830Z,1.80
2018-04-27T11:51:11.794Z,1.90
2018-04-27T11:52:11.759Z,1.60
2018-04-27T11:53:11.764Z,2.00
2018-04-27T11:54:11.692Z,1.80
2018-04-27T11:55:11.655Z,1.60
2018-04-27T11:56:11.621Z,1.90
2018-04-27T11:57:11.590Z,1.80
2018-04-27T11:58:11.556Z,1.90
2018-04-27T11:59:11.520Z,2.10
2018-04-27T12:00:11.488Z,2.00
2018-04-27T12:01:11.454Z,2.00
2018-04-27T12:02:11.418Z,1.70
2018-04-27T12:03:11.383Z,1.80
2018-04-27T12:04:11.351Z,2.40
2018-04-27T12:05:11.323Z,1.60
2018-04-27T12:06:11.282Z,2.20
2018-04-27T12:07:11.250Z,1.90
2018-04-27T12:08:11.213Z,1.60
2018-04-27T12:09:11.178Z,1.60
2018-04-27T12:10:11.149Z,1.80
2018-04-27T12:11:11.111Z,2.00
2018-04-27T12:12:11.079Z,1.50
2018-04-27T12:13:11.048Z,2.00
2018-04-27T12:14:11.014Z,1.80
2018-04-27T12:15:10.976Z,2.00
2018-04-27T12:16:10.939Z,2.00
2018-04-27T12:17:10.907Z,1.60
2018-04-27T12:18:10.871Z,1.60
2018-04-27T12:19:10.838Z,1.90
2018-04-27T12:20:10.806Z,2.00
2018-04-27T12:21:10.771Z,1.60
2018-04-27T12:22:10.736Z,2.10
2018-04-27T12:23:10.702Z,1.60
2018-04-27T12:24:10.667Z,1.80
2018-04-27T12:25:10.631Z,2.00
2018-04-27T12:26:10.595Z,1.80
2018-04-27T12:27:10.562Z,2.00
2018-04-27T12:28:10.528Z,2.00
2018-04-27T12:29:10.491Z,1.90
2018-04-27T12:30:10.458Z,2.00
2018-04-27T12:31:10.494Z,1.70
2018-04-27T12:32:10.390Z,1.80
2018-04-27T12:33:10.351Z,1.50
2018-04-27T12:34:10.317Z,1.90
2018-04-27T12:35:10.284Z,1.80
2018-04-27T12:36:10.244Z,1.90
2018-04-27T12:37:10.215Z,1.50
2018-04-27T12:38:10.180Z,2.00
2018-04-27T12:39:10.146Z,1.60
2018-04-27T12:40:10.105Z,1.60
2018-04-27T12:41:10.069Z,1.80
2018-04-27T12:42:10.035Z,1.70
2018-04-27T12:43:10.002Z,1.70
2018-04-27T12:44:09.964Z,1.60
2018-04-27T12:45:09.929Z,1.60
2018-04-27T12:46:09.896Z,2.00
2018-04-27T12:47:09.861Z,1.80
2018-04-27T12:48:09.826Z,2.00
2018-04-27T12:49:09.790Z,1.60
2018-04-27T12:50:09.760Z,1.80
2018-04-27T12:51:09.723Z,1.60
2018-04-27T12:52:09.754Z,1.60
2018-04-27T12:53:09.655Z,1.80
2018-04-27T12:54:09.622Z,1.40
2018-04-27T12:55:09.587Z,1.50
2018-04-27T12:56:09.552Z,1.60
2018-04-27T12:57:09.517Z,1.80
2018-04-27T12:58:09.488Z,1.50
2018-04-27T12:59:09.451Z,2.00
2018-04-27T13:00:09.417Z,1.80
2018-04-27T13:01:09.384Z,1.50
2018-04-27T13:02:09.348Z,1.90
2018-04-27T13:03:09.316Z,1.80
2018-04-27T13:04:09.286Z,1.40
2018-04-27T13:05:09.250Z,1.60
2018-04-27T13:06:09.214Z,1.80
2018-04-27T13:07:09.179Z,1.80
2018-04-27T13:08:09.181Z,1.90
2018-04-27T13:09:09.116Z,1.60
2018-04-27T13:10:09.089Z,1.70
2018-04-27T13:11:09.044Z,1.60
2018-04-27T13:12:09.012Z,1.90
2018-04-27T13:13:08.976Z,1.50
2018-04-27T13:14:08.943Z,1.90
2018-04-27T13:15:08.911Z,1.70
2018-04-27T13:16:08.875Z,1.80
2018-04-27T13:17:08.841Z,1.70
2018-04-27T13:18:08.815Z,1.70
2018-04-27T13:19:08.841Z,1.70
2018-04-27T13:20:08.745Z,1.80
2018-04-27T13:21:08.712Z,2.10
2018-04-27T13:22:08.676Z,1.90
2018-04-27T13:23:08.647Z,1.80